Terminal Aerodrome Forecast
Issued by NWS Denver/Boulder, CO

Home | Current Version | Previous Version | Text Only | Print | Product List | Glossary On
Versions: 1 2 3 4 5 6 7 8 9 10 11 12 13 14 15 16 17 18 19 20 21 22 23 24 25 26 27 28 29 30 31 32 33 34 35 36 37 38 39 40 41 42 43 44 45 46 47 48 49 50
464
FTUS45 KBOU 210250 AAC
TAFDEN
TAF AMD
KDEN 210250Z 2103/2206 12005KT P6SM VCSH SCT050 BKN070
      TEMPO 2103/2104 3SM -SN BR BKN035
     FM210700 14007KT P6SM SCT050 SCT090
     FM210900 16007KT P6SM VCFG SCT015
     FM211500 20005KT P6SM FEW120
     FM211900 13009KT P6SM SCT150
     FM212100 10007KT P6SM FEW050 SCT100
     FM220100 13006KT P6SM SCT025 OVC040=

USA.gov is the U.S. government's official web portal to all federal, state and local government web resources and services.